Time;durP1;ratioP1;P1;durP2;ratioP2;P2;SDS_P1;SDS_P2;PMS_P1;PMS_P2;Temp;Humidity;BMP_temperature;BMP_pressure;BME280_temperature;BME280_humidity;BME280_pressure;Samples;Min_cycle;Max_cycle;Signal;HPM_P1;HPM_P2
2021/07/18 00:01:54;;;;;;;6.95;3.97;;;29.00;37.90;;;;;;4311348;33;20052;-36
2021/07/18 00:04:20;;;;;;;7.80;4.70;;;29.00;37.80;;;;;;4298993;33;20091;-37
2021/07/18 00:06:46;;;;;;;5.30;4.10;;;28.80;37.90;;;;;;4299015;33;20063;-37
2021/07/18 00:09:13;;;;;;;4.82;3.53;;;28.50;38.10;;;;;;4310724;33;20577;-37
2021/07/18 00:11:39;;;;;;;6.72;3.55;;;28.30;38.40;;;;;;4325618;33;20087;-36
2021/07/18 00:14:08;;;;;;;4.65;2.80;;;28.20;38.80;;;;;;4325685;33;20551;-36
2021/07/18 00:16:35;;;;;;;3.95;3.62;;;28.10;39.10;;;;;;4313477;33;20162;-37
2021/07/18 00:19:02;;;;;;;6.75;4.78;;;28.10;39.20;;;;;;4325611;33;20605;-36
2021/07/18 00:21:29;;;;;;;4.60;3.62;;;28.00;39.40;;;;;;4301834;33;20145;-36
2021/07/18 00:23:57;;;;;;;5.65;4.07;;;27.90;39.60;;;;;;4303952;33;20527;-36
2021/07/18 00:26:23;;;;;;;6.60;4.12;;;27.90;39.80;;;;;;4316848;33;20070;-36
2021/07/18 00:28:50;;;;;;;5.28;3.25;;;27.80;39.90;;;;;;4313514;33;20087;-36
2021/07/18 00:31:17;;;;;;;4.95;3.78;;;27.90;40.00;;;;;;4304716;33;20142;-36
2021/07/18 00:33:43;;;;;;;5.80;2.97;;;27.90;39.90;;;;;;4328288;33;20642;-37
2021/07/18 00:36:09;;;;;;;4.90;3.97;;;27.90;39.90;;;;;;4304346;33;20199;-37
2021/07/18 00:38:36;;;;;;;4.87;3.47;;;27.80;39.90;;;;;;4328051;33;20475;-37
2021/07/18 00:41:02;;;;;;;6.40;3.80;;;27.70;40.30;;;;;;4316157;33;20656;-36
2021/07/18 00:43:29;;;;;;;5.47;3.97;;;27.60;40.70;;;;;;4328052;33;20088;-37
2021/07/18 00:46:00;;;;;;;5.47;4.62;;;27.60;40.80;;;;;;4328376;33;20117;-36
2021/07/18 00:48:28;;;;;;;6.93;4.28;;;27.70;40.90;;;;;;4303696;33;20068;-36
2021/07/18 00:50:56;;;;;;;6.22;4.47;;;27.70;40.90;;;;;;4316027;33;20071;-36
2021/07/18 00:53:22;;;;;;;7.93;4.65;;;27.70;40.90;;;;;;4303596;33;20118;-36
2021/07/18 00:55:49;;;;;;;6.72;5.00;;;27.70;41.10;;;;;;4315737;33;20086;-37
2021/07/18 00:58:15;;;;;;;6.87;4.53;;;27.70;41.10;;;;;;4316189;33;20194;-36
2021/07/18 01:00:42;;;;;;;6.78;4.40;;;27.80;41.00;;;;;;4329083;33;20071;-36
2021/07/18 01:03:09;;;;;;;7.93;3.65;;;27.80;40.90;;;;;;4331526;33;20059;-36
2021/07/18 01:05:35;;;;;;;6.75;4.25;;;27.80;40.70;;;;;;4331695;33;20588;-36
2021/07/18 01:08:02;;;;;;;4.07;3.62;;;27.70;40.70;;;;;;4332967;33;20138;-36
2021/07/18 01:10:28;;;;;;;4.40;3.47;;;27.60;41.00;;;;;;4345002;32;20538;-36
2021/07/18 01:12:55;;;;;;;4.40;3.70;;;27.60;41.20;;;;;;4343487;33;20069;-36
2021/07/18 01:15:21;;;;;;;9.88;4.78;;;27.60;41.20;;;;;;4343703;33;20062;-36
2021/07/18 01:17:48;;;;;;;6.07;4.37;;;27.60;41.30;;;;;;4343430;33;20065;-37
2021/07/18 01:20:14;;;;;;;5.03;4.28;;;27.70;41.30;;;;;;4343397;33;20150;-37
2021/07/18 01:22:41;;;;;;;8.85;5.87;;;27.80;41.20;;;;;;4312779;33;20186;-37
2021/07/18 01:25:10;;;;;;;9.40;5.30;;;27.90;41.10;;;;;;4289008;33;20081;-37
2021/07/18 01:27:37;;;;;;;7.55;4.75;;;27.90;40.80;;;;;;4257101;33;20072;-37
2021/07/18 01:30:08;;;;;;;9.45;4.75;;;28.10;40.90;;;;;;4257479;33;20076;-37
2021/07/18 01:32:36;;;;;;;8.90;5.25;;;28.10;40.90;;;;;;4269708;33;20087;-37
2021/07/18 01:35:03;;;;;;;8.38;5.22;;;28.20;40.70;;;;;;4256483;33;20090;-37
2021/07/18 01:37:30;;;;;;;5.62;4.40;;;28.30;40.80;;;;;;4246071;33;20568;-37
2021/07/18 01:39:56;;;;;;;8.35;5.50;;;28.40;40.80;;;;;;4245842;33;20175;-37
2021/07/18 01:42:24;;;;;;;7.62;6.72;;;28.30;40.90;;;;;;4257558;33;20061;-36
2021/07/18 01:44:51;;;;;;;5.70;4.70;;;28.20;41.20;;;;;;4257923;33;20685;-36
2021/07/18 01:47:18;;;;;;;5.75;5.15;;;28.30;41.20;;;;;;4269559;33;20075;-36
2021/07/18 01:49:44;;;;;;;6.60;4.57;;;28.50;40.90;;;;;;4245475;33;20092;-36
2021/07/18 01:52:11;;;;;;;7.97;4.95;;;28.80;40.60;;;;;;4268900;33;20057;-36
2021/07/18 01:54:38;;;;;;;16.65;11.18;;;29.00;40.20;;;;;;4269204;33;20106;-35
2021/07/18 01:57:12;;;;;;;8.55;4.70;;;29.10;40.10;;;;;;4245384;33;20083;-35
2021/07/18 01:59:38;;;;;;;;;;;29.30;40.00;;;;;;4283047;33;20092;-36
2021/07/18 02:02:05;;;;;;;4.62;4.22;;;29.50;39.90;;;;;;4312421;33;19973;-36
2021/07/18 02:04:32;;;;;;;8.68;4.20;;;29.80;39.70;;;;;;4312778;33;20070;-36
2021/07/18 02:06:58;;;;;;;8.82;4.93;;;30.20;39.00;;;;;;4312770;33;20507;-36
2021/07/18 02:09:25;;;;;;;6.30;4.40;;;30.50;38.50;;;;;;4300188;33;20495;-36
2021/07/18 02:11:51;;;;;;;10.35;3.83;;;30.80;38.30;;;;;;4300850;33;20084;-35
2021/07/18 02:14:18;;;;;;;6.00;4.55;;;31.10;38.20;;;;;;4312027;33;20552;-36
2021/07/18 02:16:44;;;;;;;9.13;5.05;;;31.50;37.80;;;;;;4311974;33;20110;-36
2021/07/18 02:19:11;;;;;;;8.95;4.55;;;31.80;37.30;;;;;;4312360;33;20162;-36
2021/07/18 02:21:39;;;;;;;11.00;5.07;;;32.10;36.90;;;;;;4312246;33;20178;-35
2021/07/18 02:24:07;;;;;;;9.68;5.07;;;32.40;37.40;;;;;;4312415;33;20102;-36
2021/07/18 02:26:33;;;;;;;6.55;4.75;;;32.70;37.60;;;;;;4312224;33;20063;-36
2021/07/18 02:29:00;;;;;;;5.15;4.32;;;33.00;37.70;;;;;;4312009;33;20066;-36
2021/07/18 02:31:27;;;;;;;6.22;4.32;;;33.20;37.30;;;;;;4312166;33;20074;-37
2021/07/18 02:33:53;;;;;;;8.50;5.05;;;33.40;38.20;;;;;;4319822;33;20156;-36
2021/07/18 02:36:20;;;;;;;5.57;4.12;;;33.60;38.00;;;;;;4344021;33;20459;-35
2021/07/18 02:38:46;;;;;;;17.75;13.15;;;33.70;37.70;;;;;;4330077;33;20061;-35
2021/07/18 02:41:13;;;;;;;6.28;5.07;;;33.80;37.40;;;;;;4343762;33;20148;-36
2021/07/18 02:43:40;;;;;;;5.15;4.65;;;34.00;37.30;;;;;;4343641;33;20523;-35
2021/07/18 02:46:07;;;;;;;4.40;4.00;;;34.20;37.10;;;;;;4329674;33;20156;-35
2021/07/18 02:48:38;;;;;;;7.47;4.93;;;34.40;37.10;;;;;;4317925;33;20063;-35
2021/07/18 02:51:05;;;;;;;8.35;4.80;;;34.40;37.40;;;;;;4343444;33;20077;-36
2021/07/18 02:53:31;;;;;;;7.70;5.18;;;34.60;37.70;;;;;;4343366;33;20077;-36
2021/07/18 02:55:58;;;;;;;5.95;5.20;;;34.60;38.00;;;;;;4305823;33;20144;-36
2021/07/18 02:58:24;;;;;;;5.32;4.50;;;34.60;38.10;;;;;;4330357;33;20063;-35
2021/07/18 03:00:51;;;;;;;8.27;4.87;;;34.80;38.20;;;;;;4330005;33;20067;-35
2021/07/18 03:03:19;;;;;;;8.77;5.43;;;35.20;37.70;;;;;;4343557;33;20152;-36
2021/07/18 03:05:47;;;;;;;6.40;5.50;;;35.70;37.10;;;;;;4343769;33;20089;-36
2021/07/18 03:08:13;;;;;;;6.45;5.43;;;36.20;36.70;;;;;;4343231;33;20063;-37
2021/07/18 03:10:40;;;;;;;6.55;5.75;;;36.60;36.30;;;;;;4329501;33;20468;-36
2021/07/18 03:13:06;;;;;;;7.53;5.50;;;37.00;35.60;;;;;;4343580;33;20070;-36
2021/07/18 03:15:33;;;;;;;5.78;5.18;;;37.50;35.10;;;;;;4329493;33;20652;-36
2021/07/18 03:18:01;;;;;;;10.55;6.68;;;38.00;34.40;;;;;;4343728;33;20069;-36
2021/07/18 03:20:28;;;;;;;9.45;5.40;;;38.40;33.80;;;;;;4313965;33;20180;-36
2021/07/18 03:22:55;;;;;;;7.80;5.15;;;38.40;33.30;;;;;;4326402;33;20091;-37
2021/07/18 03:25:21;;;;;;;13.20;5.60;;;38.20;33.20;;;;;;4325979;33;20075;-38
2021/07/18 03:27:48;;;;;;;7.85;5.97;;;37.90;33.20;;;;;;4313887;33;20091;-38
2021/07/18 03:30:15;;;;;;;7.65;5.37;;;37.60;33.50;;;;;;4313986;33;20078;-37
2021/07/18 03:32:42;;;;;;;8.77;6.20;;;37.30;33.80;;;;;;4313574;33;20086;-36
2021/07/18 03:35:12;;;;;;;8.55;6.28;;;37.00;34.00;;;;;;4313697;33;20075;-35
2021/07/18 03:37:39;;;;;;;10.65;6.75;;;36.70;34.20;;;;;;4296556;33;20076;-37
2021/07/18 03:40:11;;;;;;;10.13;5.97;;;36.60;34.40;;;;;;4255462;33;20069;-36
2021/07/18 03:42:37;;;;;;;7.90;5.62;;;36.70;34.50;;;;;;4228089;33;20158;-36
2021/07/18 03:45:06;;;;;;;8.13;6.72;;;36.90;34.50;;;;;;4227882;33;20077;-36
2021/07/18 03:47:32;;;;;;;22.08;7.28;;;37.20;34.00;;;;;;4228077;33;20076;-36
2021/07/18 03:49:59;;;;;;;12.55;6.15;;;37.60;33.10;;;;;;4225224;33;20092;-36
2021/07/18 03:52:25;;;;;;;5.60;5.05;;;37.90;32.50;;;;;;4213209;33;20068;-35
2021/07/18 03:54:52;;;;;;;7.65;5.20;;;37.90;31.80;;;;;;4199843;34;20095;-35
2021/07/18 03:57:18;;;;;;;12.37;5.72;;;38.00;31.60;;;;;;4215236;33;20066;-36
2021/07/18 03:59:44;;;;;;;6.60;5.62;;;38.10;31.80;;;;;;4193694;33;20161;-37
2021/07/18 04:02:11;;;;;;;11.88;5.72;;;38.20;31.70;;;;;;4227953;33;20482;-37
2021/07/18 04:04:37;;;;;;;10.30;6.45;;;38.40;31.70;;;;;;4228346;33;20081;-37
2021/07/18 04:07:04;;;;;;;7.60;5.60;;;38.60;31.60;;;;;;4216326;33;20085;-36
2021/07/18 04:09:31;;;;;;;8.23;5.60;;;38.70;33.80;;;;;;4227942;33;20081;-36
2021/07/18 04:11:57;;;;;;;7.55;5.43;;;38.70;34.30;;;;;;4240311;33;20168;-36
2021/07/18 04:14:23;;;;;;;8.88;6.43;;;38.60;34.80;;;;;;4238387;33;20493;-36
2021/07/18 04:16:50;;;;;;;6.25;5.60;;;38.40;34.80;;;;;;4285039;33;20670;-36
2021/07/18 04:19:16;;;;;;;6.60;4.93;;;38.30;35.60;;;;;;4256079;33;20069;-36
2021/07/18 04:21:43;;;;;;;7.43;5.43;;;38.30;35.90;;;;;;4256191;33;20081;-37
2021/07/18 04:24:09;;;;;;;6.62;5.07;;;38.40;36.10;;;;;;4256035;33;20053;-36
2021/07/18 04:26:35;;;;;;;5.93;5.07;;;38.50;36.30;;;;;;4270314;33;20107;-36
2021/07/18 04:29:02;;;;;;;5.25;4.47;;;38.60;36.30;;;;;;4282313;33;20652;-36
2021/07/18 04:31:28;;;;;;;5.93;5.32;;;38.80;36.00;;;;;;4282576;33;20061;-38
2021/07/18 04:33:54;;;;;;;7.57;5.05;;;38.90;35.40;;;;;;4270626;33;20171;-37
2021/07/18 04:36:21;;;;;;;11.70;5.30;;;39.00;34.70;;;;;;4270246;33;20056;-37
2021/07/18 04:38:47;;;;;;;12.50;5.40;;;39.10;34.50;;;;;;4270434;33;20070;-37
2021/07/18 04:41:14;;;;;;;7.53;5.18;;;39.20;34.50;;;;;;4270615;33;20068;-37
2021/07/18 04:43:40;;;;;;;11.32;4.68;;;39.30;33.80;;;;;;4274558;33;20147;-38
2021/07/18 04:46:07;;;;;;;5.78;5.20;;;39.30;33.50;;;;;;4286734;33;20079;-39
2021/07/18 04:48:33;;;;;;;6.45;5.28;;;39.40;33.90;;;;;;4287141;33;20081;-39
2021/07/18 04:51:00;;;;;;;9.23;4.87;;;39.40;34.10;;;;;;4336221;33;20059;-36
2021/07/18 04:53:26;;;;;;;10.48;5.22;;;39.50;33.60;;;;;;4331699;33;20071;-38
2021/07/18 04:55:55;;;;;;;5.40;4.95;;;39.50;33.30;;;;;;4331290;33;20114;-36
2021/07/18 04:58:21;;;;;;;9.70;4.53;;;39.60;33.90;;;;;;4331764;33;20067;-36
2021/07/18 05:00:48;;;;;;;6.50;4.07;;;39.70;33.30;;;;;;4345331;33;20074;-36
2021/07/18 05:03:14;;;;;;;9.02;4.40;;;39.70;32.30;;;;;;4331628;33;20516;-36
2021/07/18 05:05:41;;;;;;;9.07;4.40;;;39.70;32.60;;;;;;4345246;33;20122;-36
2021/07/18 05:08:07;;;;;;;4.07;3.72;;;39.70;31.90;;;;;;4303197;33;20132;-36
2021/07/18 05:10:33;;;;;;;6.68;3.42;;;39.70;31.40;;;;;;4313632;33;20060;-36
2021/07/18 05:13:00;;;;;;;4.55;3.85;;;39.50;30.10;;;;;;4301414;33;20059;-36
2021/07/18 05:15:27;;;;;;;6.50;4.55;;;39.30;29.90;;;;;;4313219;33;20064;-37
2021/07/18 05:17:58;;;;;;;3.95;2.97;;;39.10;30.30;;;;;;4313228;33;20195;-37
2021/07/18 05:20:25;;;;;;;3.67;3.22;;;39.10;30.00;;;;;;4301977;33;20103;-37
2021/07/18 05:22:52;;;;;;;2.78;2.53;;;39.00;29.90;;;;;;4300982;33;20090;-37
2021/07/18 05:25:18;;;;;;;3.40;3.10;;;39.10;29.40;;;;;;4313281;33;20143;-38
2021/07/18 05:27:45;;;;;;;8.02;2.75;;;39.00;29.60;;;;;;4313314;33;20157;-37
2021/07/18 05:30:13;;;;;;;4.82;3.05;;;39.00;29.20;;;;;;4313148;33;20071;-36
2021/07/18 05:32:39;;;;;;;6.53;3.92;;;38.90;29.10;;;;;;4300804;33;20153;-37
2021/07/18 05:35:07;;;;;;;5.07;3.15;;;38.90;29.20;;;;;;4312816;33;20132;-37
2021/07/18 05:37:34;;;;;;;6.72;3.20;;;38.80;29.30;;;;;;4312971;33;20056;-37
2021/07/18 05:40:01;;;;;;;7.57;3.10;;;38.80;29.50;;;;;;4327875;33;20102;-37
2021/07/18 05:42:27;;;;;;;4.22;3.05;;;38.90;29.20;;;;;;4329976;33;20499;-38
2021/07/18 05:44:54;;;;;;;3.15;2.95;;;39.00;29.10;;;;;;4316042;33;20518;-38
2021/07/18 05:47:20;;;;;;;5.00;3.60;;;39.10;29.40;;;;;;4316859;33;20080;-37
2021/07/18 05:49:46;;;;;;;6.05;2.87;;;39.10;28.90;;;;;;4315773;33;20070;-38
2021/07/18 05:52:13;;;;;;;4.35;3.22;;;39.10;28.60;;;;;;4329876;33;20098;-38
2021/07/18 05:54:39;;;;;;;4.00;2.87;;;39.20;28.80;;;;;;4316301;33;20605;-38
2021/07/18 05:57:06;;;;;;;9.65;3.10;;;39.30;28.00;;;;;;4332105;33;20067;-38
2021/07/18 05:59:32;;;;;;;4.60;2.35;;;39.30;28.20;;;;;;4331059;33;20161;-38
2021/07/18 06:01:59;;;;;;;3.40;2.80;;;39.30;28.10;;;;;;4330708;33;20093;-38
2021/07/18 06:04:26;;;;;;;3.12;2.08;;;39.40;28.20;;;;;;4330516;33;20143;-38
2021/07/18 06:06:52;;;;;;;4.15;2.37;;;39.40;27.60;;;;;;4330974;33;20109;-38
2021/07/18 06:09:19;;;;;;;1.62;1.37;;;39.50;27.50;;;;;;4330477;33;20159;-38
2021/07/18 06:11:45;;;;;;;3.37;2.20;;;39.50;27.30;;;;;;4330249;33;20102;-38
2021/07/18 06:14:11;;;;;;;5.20;1.70;;;39.70;27.70;;;;;;4311995;33;20075;-37
2021/07/18 06:16:38;;;;;;;4.18;2.15;;;39.60;27.50;;;;;;4312563;33;20229;-37
2021/07/18 06:19:04;;;;;;;6.47;1.70;;;39.50;27.60;;;;;;4312492;33;20090;-38
2021/07/18 06:21:31;;;;;;;5.60;2.20;;;39.30;27.40;;;;;;4311781;33;20059;-37
2021/07/18 06:23:57;;;;;;;1.85;1.48;;;39.20;27.60;;;;;;4288273;33;20723;-39
2021/07/18 06:26:24;;;;;;;5.37;2.20;;;39.00;26.70;;;;;;4312430;33;20544;-38
2021/07/18 06:28:50;;;;;;;3.80;1.30;;;38.90;26.70;;;;;;4312252;33;20064;-38
2021/07/18 06:31:16;;;;;;;4.43;1.70;;;38.80;26.90;;;;;;4312130;33;20153;-38
2021/07/18 06:33:44;;;;;;;1.65;1.37;;;38.70;27.00;;;;;;4299735;33;20154;-37
2021/07/18 06:36:12;;;;;;;3.70;1.58;;;38.70;26.80;;;;;;4312325;33;20075;-38
2021/07/18 06:38:39;;;;;;;1.60;1.10;;;38.60;27.00;;;;;;4311921;33;20082;-38
2021/07/18 06:41:06;;;;;;;1.10;0.80;;;38.60;26.90;;;;;;4300025;33;20145;-39
2021/07/18 06:43:32;;;;;;;7.25;1.42;;;38.50;26.20;;;;;;4311671;33;20158;-38
2021/07/18 06:45:59;;;;;;;2.72;1.23;;;38.50;26.80;;;;;;4311984;33;20651;-38
2021/07/18 06:48:25;;;;;;;4.70;2.22;;;38.50;26.60;;;;;;4311849;33;20563;-37
2021/07/18 06:50:52;;;;;;;5.93;2.00;;;38.50;26.80;;;;;;4305581;33;20152;-38
2021/07/18 06:53:18;;;;;;;3.30;1.75;;;38.50;27.60;;;;;;4329728;33;20139;-38
2021/07/18 06:55:45;;;;;;;2.47;1.60;;;38.60;27.10;;;;;;4343557;32;20071;-38
2021/07/18 06:58:11;;;;;;;4.68;1.33;;;38.80;26.10;;;;;;4330241;33;20167;-38
2021/07/18 07:00:38;;;;;;;2.00;1.00;;;38.90;25.10;;;;;;4329833;33;20074;-38
2021/07/18 07:03:04;;;;;;;1.55;1.10;;;39.20;25.10;;;;;;4311460;33;20076;-37
2021/07/18 07:05:31;;;;;;;3.78;0.65;;;39.60;25.00;;;;;;4287652;33;20205;-38
2021/07/18 07:07:57;;;;;;;1.12;0.60;;;39.90;24.30;;;;;;4314912;33;20071;-38
2021/07/18 07:10:23;;;;;;;2.00;0.80;;;40.10;23.90;;;;;;4326419;33;20563;-37
2021/07/18 07:12:50;;;;;;;2.03;1.10;;;40.20;23.70;;;;;;4326448;33;20528;-38
2021/07/18 07:15:16;;;;;;;1.83;1.50;;;40.30;23.80;;;;;;4326124;33;20059;-38
2021/07/18 07:17:43;;;;;;;1.92;0.82;;;40.30;23.60;;;;;;4314340;33;20158;-39
2021/07/18 07:20:11;;;;;;;1.30;0.85;;;40.40;23.70;;;;;;4314128;33;20077;-38
2021/07/18 07:22:38;;;;;;;1.67;0.90;;;40.40;23.90;;;;;;4326538;33;20075;-39
2021/07/18 07:25:13;;;;;;;3.92;0.88;;;40.40;24.00;;;;;;4314286;33;20176;-37
2021/07/18 07:27:40;;;;;;;5.43;0.65;;;40.30;23.80;;;;;;4326358;33;20051;-37
2021/07/18 07:30:08;;;;;;;2.50;1.48;;;40.20;24.10;;;;;;4326044;33;20075;-38
2021/07/18 07:32:35;;;;;;;3.42;0.85;;;40.20;24.20;;;;;;4326429;33;20105;-38
2021/07/18 07:35:06;;;;;;;2.22;0.98;;;40.30;24.10;;;;;;4341219;33;20078;-41
2021/07/18 07:37:34;;;;;;;2.25;0.70;;;40.50;24.10;;;;;;4342799;33;20101;-38
2021/07/18 07:40:03;;;;;;;5.30;0.90;;;40.60;23.60;;;;;;4329808;33;20150;-38
2021/07/18 07:42:29;;;;;;;2.25;0.90;;;40.70;23.60;;;;;;4343159;33;20160;-37
2021/07/18 07:44:56;;;;;;;2.10;1.90;;;40.80;23.60;;;;;;4342778;33;20065;-37
2021/07/18 07:47:22;;;;;;;3.25;1.85;;;40.80;26.00;;;;;;4329094;33;20109;-38
2021/07/18 07:49:49;;;;;;;2.12;2.03;;;40.70;26.70;;;;;;4343234;33;20070;-38
2021/07/18 07:52:15;;;;;;;3.92;2.30;;;40.80;25.70;;;;;;4329173;33;20464;-38
2021/07/18 07:54:42;;;;;;;2.83;1.65;;;40.80;25.70;;;;;;4343474;33;20063;-39
2021/07/18 07:57:09;;;;;;;3.03;1.00;;;40.90;24.80;;;;;;4345788;32;20053;-37
2021/07/18 07:59:35;;;;;;;4.25;1.30;;;40.80;23.70;;;;;;4357921;32;20195;-38
2021/07/18 08:02:02;;;;;;;3.20;2.03;;;40.80;23.80;;;;;;4357880;32;20195;-37
2021/07/18 08:04:29;;;;;;;3.10;2.17;;;40.80;25.00;;;;;;4357521;32;20058;-39
2021/07/18 08:06:56;;;;;;;1.00;0.88;;;40.80;26.10;;;;;;4358018;32;20137;-38
2021/07/18 08:09:22;;;;;;;0.50;0.30;;;40.80;23.60;;;;;;4357910;32;20165;-37
2021/07/18 08:11:49;;;;;;;1.15;0.85;;;40.70;23.30;;;;;;4358114;32;20134;-38
2021/07/18 08:14:16;;;;;;;2.03;1.10;;;40.60;23.20;;;;;;4357791;32;20062;-38
2021/07/18 08:16:42;;;;;;;3.85;1.60;;;40.50;23.90;;;;;;4358168;32;20097;-38
2021/07/18 08:19:09;;;;;;;2.67;2.17;;;40.50;25.00;;;;;;4344027;32;20058;-38
2021/07/18 08:21:35;;;;;;;7.37;2.10;;;40.40;27.20;;;;;;4357892;32;20526;-37
2021/07/18 08:24:02;;;;;;;4.82;1.08;;;40.30;27.30;;;;;;4357804;32;20061;-37
2021/07/18 08:26:28;;;;;;;0.62;0.35;;;40.20;25.30;;;;;;4357654;32;20502;-37
2021/07/18 08:28:54;;;;;;;1.77;0.68;;;40.00;23.30;;;;;;4357642;32;20105;-37
2021/07/18 08:31:21;;;;;;;2.15;0.70;;;40.10;22.50;;;;;;4357816;32;20500;-38
2021/07/18 08:33:47;;;;;;;1.00;0.73;;;40.20;22.50;;;;;;4357726;32;20070;-38
2021/07/18 08:36:14;;;;;;;3.97;0.90;;;40.20;23.00;;;;;;4331607;32;20650;-38
2021/07/18 08:38:40;;;;;;;4.40;0.95;;;40.30;23.10;;;;;;4344131;32;20073;-38
2021/07/18 08:41:06;;;;;;;5.20;1.10;;;40.30;23.20;;;;;;4357411;32;20452;-38
2021/07/18 08:43:33;;;;;;;3.28;0.80;;;40.40;23.20;;;;;;4344885;32;20082;-38
2021/07/18 08:45:59;;;;;;;3.97;0.82;;;40.50;23.50;;;;;;4346394;32;20089;-38
2021/07/18 08:48:26;;;;;;;1.40;0.90;;;40.50;24.10;;;;;;4360332;32;20112;-37
2021/07/18 08:50:52;;;;;;;4.20;0.95;;;40.60;23.90;;;;;;4360124;32;20070;-39
2021/07/18 08:53:19;;;;;;;4.03;1.20;;;40.80;23.90;;;;;;4360397;32;20167;-38
2021/07/18 08:55:45;;;;;;;2.53;0.90;;;40.80;23.80;;;;;;4346547;32;20182;-38
2021/07/18 08:58:15;;;;;;;1.40;0.80;;;40.80;24.10;;;;;;4334468;32;20151;-38
2021/07/18 09:00:43;;;;;;;3.37;0.80;;;40.80;24.40;;;;;;4360255;32;20182;-38
2021/07/18 09:03:17;;;;;;;2.05;1.02;;;40.80;24.60;;;;;;4360226;32;20585;-38
2021/07/18 09:05:44;;;;;;;2.95;1.05;;;40.90;24.60;;;;;;4301905;33;20076;-38
2021/07/18 09:08:20;;;;;;;2.25;0.85;;;41.00;24.70;;;;;;4315083;33;20236;-38
2021/07/18 09:10:48;;;;;;;1.83;1.17;;;41.30;24.60;;;;;;4328335;33;20067;-38
2021/07/18 09:13:17;;;;;;;1.42;0.73;;;41.20;24.30;;;;;;4316055;33;20079;-39
2021/07/18 09:15:47;;;;;;;1.77;0.90;;;41.20;24.20;;;;;;4316050;33;20090;-39
2021/07/18 09:18:25;;;;;;;2.80;0.80;;;41.20;24.30;;;;;;4315909;33;20082;-39
2021/07/18 09:20:57;;;;;;;2.70;0.98;;;41.10;24.20;;;;;;4327519;33;20566;-38
2021/07/18 09:23:30;;;;;;;3.00;0.85;;;41.00;24.40;;;;;;4327888;33;20528;-39
2021/07/18 09:26:25;;;;;;;3.03;0.70;;;41.00;24.30;;;;;;4315633;33;20075;-38
2021/07/18 09:28:51;;;;;;;1.55;1.00;;;41.10;24.30;;;;;;4327882;33;20143;-37
2021/07/18 09:31:32;;;;;;;2.58;0.93;;;41.10;24.30;;;;;;4327898;33;20580;-38
2021/07/18 09:34:16;;;;;;;3.15;0.90;;;41.20;24.50;;;;;;4327546;33;20654;-38
2021/07/18 09:36:43;;;;;;;3.40;1.35;;;41.30;24.20;;;;;;4335835;33;20059;-38
2021/07/18 09:39:13;;;;;;;4.10;0.95;;;41.20;24.20;;;;;;4330987;33;20102;-38
2021/07/18 09:41:42;;;;;;;2.05;1.12;;;41.30;24.30;;;;;;4344594;33;20502;-38
2021/07/18 09:44:09;;;;;;;1.12;0.70;;;41.40;24.20;;;;;;4344567;33;20124;-38
2021/07/18 09:46:36;;;;;;;1.80;0.77;;;41.40;24.00;;;;;;4344694;33;20160;-38
2021/07/18 09:49:04;;;;;;;4.05;0.70;;;41.40;23.90;;;;;;4344589;33;20448;-38
2021/07/18 09:51:31;;;;;;;1.85;0.90;;;41.40;23.90;;;;;;4330819;33;20066;-39
2021/07/18 09:54:13;;;;;;;2.80;0.80;;;41.40;23.80;;;;;;4318365;32;20051;-37
2021/07/18 09:56:40;;;;;;;1.95;1.00;;;41.30;23.90;;;;;;4343920;33;20094;-38
2021/07/18 09:59:07;;;;;;;4.37;1.17;;;41.20;23.90;;;;;;4344565;33;20075;-37
2021/07/18 10:01:33;;;;;;;4.28;1.20;;;41.20;24.90;;;;;;4330841;33;20074;-38
2021/07/18 10:04:01;;;;;;;5.78;1.12;;;41.00;26.10;;;;;;4326792;33;20073;-38
2021/07/18 10:06:31;;;;;;;2.75;1.30;;;40.90;26.20;;;;;;4327337;33;20083;-38
2021/07/18 10:09:05;;;;;;;6.82;1.27;;;40.80;26.10;;;;;;4314402;33;20070;-37
2021/07/18 10:11:32;;;;;;;4.90;1.35;;;40.70;26.30;;;;;;4302735;33;20074;-37
2021/07/18 10:13:59;;;;;;;6.57;1.62;;;40.50;27.00;;;;;;4326908;33;20170;-37
2021/07/18 10:16:27;;;;;;;2.95;1.58;;;40.40;27.60;;;;;;4326854;33;20178;-36
2021/07/18 10:18:55;;;;;;;5.20;2.00;;;40.20;28.40;;;;;;4314973;33;20597;-37
2021/07/18 10:21:27;;;;;;;2.15;1.60;;;39.90;31.00;;;;;;4327013;33;20562;-38
2021/07/18 10:23:56;;;;;;;3.83;1.30;;;39.70;29.20;;;;;;4326596;33;20090;-38
2021/07/18 10:26:29;;;;;;;4.32;1.80;;;39.60;28.80;;;;;;4326964;33;20668;-38
2021/07/18 10:28:56;;;;;;;4.87;1.55;;;39.40;28.70;;;;;;4314413;33;20635;-38
2021/07/18 10:31:30;;;;;;;1.65;1.10;;;39.30;28.50;;;;;;4314214;33;20150;-38
2021/07/18 10:33:57;;;;;;;3.12;1.30;;;39.20;28.40;;;;;;4326868;33;20101;-38
2021/07/18 10:36:25;;;;;;;9.02;1.58;;;39.10;28.50;;;;;;4302232;33;20090;-38
2021/07/18 10:38:51;;;;;;;5.28;1.42;;;39.00;28.00;;;;;;4302854;33;20066;-37
2021/07/18 10:41:44;;;;;;;4.50;1.33;;;39.00;27.20;;;;;;4334117;33;20070;-37
2021/07/18 10:44:19;;;;;;;9.45;2.67;;;39.00;27.20;;;;;;4333381;33;20216;-39
2021/07/18 10:46:54;;;;;;;4.85;1.25;;;39.10;27.80;;;;;;4343684;33;20083;-38
2021/07/18 10:49:48;;;;;;;5.05;1.10;;;39.10;27.80;;;;;;4343891;33;20086;-38
2021/07/18 10:52:15;;;;;;;5.62;1.27;;;39.10;27.60;;;;;;4343874;33;20227;-36
2021/07/18 10:54:42;;;;;;;3.67;1.00;;;39.20;27.80;;;;;;4343480;33;20058;-38
2021/07/18 10:57:32;;;;;;;4.85;1.87;;;39.40;27.30;;;;;;4343553;33;20437;-37
2021/07/18 11:00:20;;;;;;;2.30;0.93;;;39.50;27.00;;;;;;4329609;33;20062;-37
2021/07/18 11:02:46;;;;;;;5.97;1.27;;;39.80;28.10;;;;;;4343569;33;20511;-37
2021/07/18 11:05:17;;;;;;;1.15;1.05;;;39.80;27.30;;;;;;4317834;33;20545;-37
2021/07/18 11:07:54;;;;;;;6.15;1.02;;;39.80;27.20;;;;;;4343354;32;20605;-37
2021/07/18 11:10:23;;;;;;;5.22;1.30;;;39.70;27.20;;;;;;4330833;33;20094;-37
2021/07/18 11:13:02;;;;;;;4.07;1.00;;;39.50;26.80;;;;;;4330328;33;20063;-38
2021/07/18 11:15:34;;;;;;;2.62;1.12;;;39.50;26.90;;;;;;4329680;33;20171;-38
2021/07/18 11:18:06;;;;;;;2.85;1.10;;;39.50;27.20;;;;;;4329618;33;20047;-38
2021/07/18 11:20:40;;;;;;;5.40;1.10;;;39.50;27.40;;;;;;4343341;33;20167;-37
2021/07/18 11:23:09;;;;;;;2.72;1.00;;;39.40;27.10;;;;;;4343436;33;20058;-37
2021/07/18 11:25:46;;;;;;;4.95;0.90;;;39.40;26.60;;;;;;4329535;33;20151;-37
2021/07/18 11:28:35;;;;;;;3.70;1.40;;;39.50;26.30;;;;;;4329796;33;20070;-37
2021/07/18 11:31:14;;;;;;;4.53;1.00;;;39.50;26.20;;;;;;4343225;33;20070;-37
2021/07/18 11:34:15;;;;;;;6.18;1.23;;;39.50;26.50;;;;;;4343377;33;20050;-38
2021/07/18 11:36:41;;;;;;;4.35;1.10;;;39.50;27.00;;;;;;4343165;33;20058;-38
2021/07/18 11:39:16;;;;;;;2.12;0.80;;;39.40;27.40;;;;;;4343288;33;20147;-37
2021/07/18 11:41:44;;;;;;;2.53;1.10;;;39.50;27.30;;;;;;4343085;33;20055;-39
2021/07/18 11:44:11;;;;;;;3.05;0.90;;;39.70;26.70;;;;;;4343376;33;20059;-37
2021/07/18 11:46:41;;;;;;;2.83;1.17;;;39.90;26.90;;;;;;4342931;33;20062;-37
2021/07/18 11:49:09;;;;;;;4.45;1.27;;;40.00;26.90;;;;;;4329433;33;20471;-37
2021/07/18 11:51:41;;;;;;;1.48;0.95;;;40.00;27.10;;;;;;4343122;33;20065;-37
2021/07/18 11:54:09;;;;;;;1.30;1.12;;;40.10;27.30;;;;;;4343071;33;20157;-38
2021/07/18 11:56:40;;;;;;;2.15;0.93;;;40.10;27.60;;;;;;4328970;33;20071;-38
2021/07/18 11:59:08;;;;;;;2.60;1.17;;;40.10;27.30;;;;;;4328444;33;20530;-38
2021/07/18 12:01:37;;;;;;;4.70;0.98;;;40.00;27.70;;;;;;4314562;33;20070;-38
2021/07/18 12:04:07;;;;;;;2.35;1.17;;;39.80;26.30;;;;;;4328186;33;20531;-38
2021/07/18 12:06:34;;;;;;;2.53;1.00;;;39.60;26.10;;;;;;4314746;33;20074;-37
2021/07/18 12:09:15;;;;;;;3.37;1.12;;;39.60;26.10;;;;;;4335082;33;20082;-37
2021/07/18 12:11:42;;;;;;;3.55;1.00;;;39.60;26.00;;;;;;4328920;33;20063;-38
2021/07/18 12:14:09;;;;;;;2.62;1.05;;;39.60;25.80;;;;;;4298652;33;20143;-37
2021/07/18 12:16:38;;;;;;;1.55;1.10;;;39.70;25.90;;;;;;4310869;33;20060;-37
2021/07/18 12:19:05;;;;;;;1.80;0.85;;;39.80;25.60;;;;;;4312634;33;20516;-38
2021/07/18 12:21:34;;;;;;;3.45;1.02;;;39.90;25.70;;;;;;4314092;33;20068;-38
2021/07/18 12:24:18;;;;;;;2.97;1.05;;;39.80;25.70;;;;;;4302042;33;20059;-37
2021/07/18 12:26:49;;;;;;;2.33;1.02;;;39.70;25.70;;;;;;4290145;33;20083;-39
2021/07/18 12:29:16;;;;;;;3.17;1.15;;;39.70;25.70;;;;;;4301952;33;20676;-38
2021/07/18 12:31:45;;;;;;;1.20;0.80;;;39.70;25.80;;;;;;4301436;33;20094;-38
2021/07/18 12:34:12;;;;;;;3.60;1.20;;;39.80;26.00;;;;;;4301134;33;20523;-38
2021/07/18 12:37:15;;;;;;;2.33;1.10;;;39.80;26.00;;;;;;4313622;33;20106;-37
2021/07/18 12:39:53;;;;;;;2.83;1.05;;;39.80;25.70;;;;;;4244460;33;20061;-39
2021/07/18 12:42:34;;;;;;;3.53;0.90;;;39.70;25.10;;;;;;4255818;33;20112;-37
2021/07/18 12:45:21;;;;;;;3.53;1.30;;;39.70;25.10;;;;;;4244658;33;20122;-38
2021/07/18 12:47:50;;;;;;;2.28;1.10;;;39.70;25.10;;;;;;4244095;33;20148;-38
2021/07/18 12:50:36;;;;;;;4.57;1.20;;;39.70;24.50;;;;;;4244635;33;20167;-38
2021/07/18 12:53:13;;;;;;;2.45;1.20;;;39.70;24.80;;;;;;4284399;33;20072;-38